sensor_id;sensor_type;location;lat;lon;timestamp;temperature;humidity
53310;DHT22;39197;53.200;5.792;2022-12-07T00:01:21;4.80;99.90
53310;DHT22;39197;53.200;5.792;2022-12-07T00:03:49;4.80;99.90
53310;DHT22;39197;53.200;5.792;2022-12-07T00:06:17;4.80;99.90
53310;DHT22;39197;53.200;5.792;2022-12-07T00:08:43;4.60;99.90
53310;DHT22;39197;53.200;5.792;2022-12-07T00:11:13;4.70;99.90
53310;DHT22;39197;53.200;5.792;2022-12-07T00:13:39;4.60;99.90
53310;DHT22;39197;53.200;5.792;2022-12-07T00:16:08;4.70;99.90
53310;DHT22;39197;53.200;5.792;2022-12-07T00:18:35;4.60;99.90
53310;DHT22;39197;53.200;5.792;2022-12-07T00:23:31;4.70;99.90
53310;DHT22;39197;53.200;5.792;2022-12-07T00:26:07;4.50;99.90
53310;DHT22;39197;53.200;5.792;2022-12-07T00:28:33;4.50;99.90
53310;DHT22;39197;53.200;5.792;2022-12-07T00:31:08;4.90;99.90
53310;DHT22;39197;53.200;5.792;2022-12-07T00:33:35;5.00;99.90
53310;DHT22;39197;53.200;5.792;2022-12-07T00:36:02;4.80;99.90
53310;DHT22;39197;53.200;5.792;2022-12-07T00:38:31;4.80;99.90
53310;DHT22;39197;53.200;5.792;2022-12-07T00:40:59;5.10;99.90
53310;DHT22;39197;53.200;5.792;2022-12-07T00:43:26;5.00;99.90
53310;DHT22;39197;53.200;5.792;2022-12-07T00:45:52;5.00;99.90
53310;DHT22;39197;53.200;5.792;2022-12-07T00:48:18;5.00;99.90
53310;DHT22;39197;53.200;5.792;2022-12-07T00:50:44;5.00;99.90
53310;DHT22;39197;53.200;5.792;2022-12-07T00:53:10;5.20;99.90
53310;DHT22;39197;53.200;5.792;2022-12-07T00:55:36;4.90;99.90
53310;DHT22;39197;53.200;5.792;2022-12-07T00:58:03;5.00;99.90
53310;DHT22;39197;53.200;5.792;2022-12-07T01:00:29;4.90;99.90
53310;DHT22;39197;53.200;5.792;2022-12-07T01:02:54;4.90;99.90
53310;DHT22;39197;53.200;5.792;2022-12-07T01:05:20;4.90;99.90
53310;DHT22;39197;53.200;5.792;2022-12-07T01:07:46;4.80;99.90
53310;DHT22;39197;53.200;5.792;2022-12-07T01:10:15;4.80;99.90
53310;DHT22;39197;53.200;5.792;2022-12-07T01:12:41;4.90;99.90
53310;DHT22;39197;53.200;5.792;2022-12-07T01:15:07;4.70;99.90
53310;DHT22;39197;53.200;5.792;2022-12-07T01:17:34;4.70;99.90
53310;DHT22;39197;53.200;5.792;2022-12-07T01:20:00;4.70;99.90
53310;DHT22;39197;53.200;5.792;2022-12-07T01:22:26;5.00;99.90
53310;DHT22;39197;53.200;5.792;2022-12-07T01:24:52;4.80;99.90
53310;DHT22;39197;53.200;5.792;2022-12-07T01:27:18;4.70;99.90
53310;DHT22;39197;53.200;5.792;2022-12-07T01:29:43;4.70;99.90
53310;DHT22;39197;53.200;5.792;2022-12-07T01:32:10;4.50;99.90
53310;DHT22;39197;53.200;5.792;2022-12-07T01:34:36;4.60;99.90
53310;DHT22;39197;53.200;5.792;2022-12-07T01:37:02;4.60;99.90
53310;DHT22;39197;53.200;5.792;2022-12-07T01:39:27;4.50;99.90
53310;DHT22;39197;53.200;5.792;2022-12-07T01:41:53;4.50;99.90
53310;DHT22;39197;53.200;5.792;2022-12-07T01:46:59;4.50;99.90
53310;DHT22;39197;53.200;5.792;2022-12-07T01:54:44;4.50;99.90
53310;DHT22;39197;53.200;5.792;2022-12-07T01:57:11;4.70;99.90
53310;DHT22;39197;53.200;5.792;2022-12-07T01:59:38;4.60;99.90
53310;DHT22;39197;53.200;5.792;2022-12-07T02:02:10;4.60;99.90
53310;DHT22;39197;53.200;5.792;2022-12-07T02:04:39;4.50;99.90
53310;DHT22;39197;53.200;5.792;2022-12-07T02:07:05;4.40;99.90
53310;DHT22;39197;53.200;5.792;2022-12-07T02:09:31;4.50;99.90
53310;DHT22;39197;53.200;5.792;2022-12-07T02:11:57;4.50;99.90
53310;DHT22;39197;53.200;5.792;2022-12-07T02:14:22;4.40;99.90
53310;DHT22;39197;53.200;5.792;2022-12-07T02:22:51;4.40;99.90
53310;DHT22;39197;53.200;5.792;2022-12-07T02:28:02;4.50;99.90
53310;DHT22;39197;53.200;5.792;2022-12-07T02:30:37;4.60;99.90
53310;DHT22;39197;53.200;5.792;2022-12-07T02:33:10;4.60;99.90
53310;DHT22;39197;53.200;5.792;2022-12-07T02:35:44;4.60;99.90
53310;DHT22;39197;53.200;5.792;2022-12-07T02:38:25;4.60;99.90
53310;DHT22;39197;53.200;5.792;2022-12-07T02:41:00;4.70;99.90
53310;DHT22;39197;53.200;5.792;2022-12-07T02:43:38;4.70;99.90
53310;DHT22;39197;53.200;5.792;2022-12-07T02:46:09;4.80;99.90
53310;DHT22;39197;53.200;5.792;2022-12-07T02:48:38;4.80;99.90
53310;DHT22;39197;53.200;5.792;2022-12-07T02:51:04;4.80;99.90
53310;DHT22;39197;53.200;5.792;2022-12-07T02:53:37;4.80;99.90
53310;DHT22;39197;53.200;5.792;2022-12-07T03:07:21;4.80;99.90
53310;DHT22;39197;53.200;5.792;2022-12-07T03:12:35;4.80;99.90
53310;DHT22;39197;53.200;5.792;2022-12-07T03:15:07;4.80;99.90
53310;DHT22;39197;53.200;5.792;2022-12-07T03:17:37;4.70;99.90
53310;DHT22;39197;53.200;5.792;2022-12-07T03:20:06;4.70;99.90
53310;DHT22;39197;53.200;5.792;2022-12-07T03:22:34;4.60;99.90
53310;DHT22;39197;53.200;5.792;2022-12-07T03:25:06;4.60;99.90
53310;DHT22;39197;53.200;5.792;2022-12-07T03:30:06;4.60;99.90
53310;DHT22;39197;53.200;5.792;2022-12-07T03:35:07;4.70;99.90
53310;DHT22;39197;53.200;5.792;2022-12-07T03:37:48;4.80;99.90
53310;DHT22;39197;53.200;5.792;2022-12-07T03:42:50;4.90;99.90
53310;DHT22;39197;53.200;5.792;2022-12-07T03:45:16;5.00;99.90
53310;DHT22;39197;53.200;5.792;2022-12-07T03:47:56;5.00;99.90
53310;DHT22;39197;53.200;5.792;2022-12-07T03:50:30;4.90;99.90
53310;DHT22;39197;53.200;5.792;2022-12-07T03:52:58;4.90;99.90
53310;DHT22;39197;53.200;5.792;2022-12-07T03:55:29;4.80;99.90
53310;DHT22;39197;53.200;5.792;2022-12-07T03:57:59;4.80;99.90
53310;DHT22;39197;53.200;5.792;2022-12-07T04:00:26;4.70;99.90
53310;DHT22;39197;53.200;5.792;2022-12-07T04:02:52;4.70;99.90
53310;DHT22;39197;53.200;5.792;2022-12-07T04:05:18;4.70;99.90
53310;DHT22;39197;53.200;5.792;2022-12-07T04:07:44;4.60;99.90
53310;DHT22;39197;53.200;5.792;2022-12-07T04:10:10;4.60;99.90
53310;DHT22;39197;53.200;5.792;2022-12-07T04:12:36;4.60;99.90
53310;DHT22;39197;53.200;5.792;2022-12-07T04:15:01;4.50;99.90
53310;DHT22;39197;53.200;5.792;2022-12-07T04:17:27;4.50;99.90
53310;DHT22;39197;53.200;5.792;2022-12-07T04:19:53;4.50;99.90
53310;DHT22;39197;53.200;5.792;2022-12-07T04:22:18;4.40;99.90
53310;DHT22;39197;53.200;5.792;2022-12-07T04:24:44;4.40;99.90
53310;DHT22;39197;53.200;5.792;2022-12-07T04:27:09;4.40;99.90
53310;DHT22;39197;53.200;5.792;2022-12-07T04:29:35;4.40;99.90
53310;DHT22;39197;53.200;5.792;2022-12-07T04:32:00;4.30;99.90
53310;DHT22;39197;53.200;5.792;2022-12-07T04:34:26;4.30;99.90
53310;DHT22;39197;53.200;5.792;2022-12-07T04:36:52;4.30;99.90
53310;DHT22;39197;53.200;5.792;2022-12-07T04:41:45;4.30;99.90
53310;DHT22;39197;53.200;5.792;2022-12-07T04:44:12;4.30;99.90
53310;DHT22;39197;53.200;5.792;2022-12-07T04:46:39;4.20;99.90
53310;DHT22;39197;53.200;5.792;2022-12-07T04:49:05;4.20;99.90
53310;DHT22;39197;53.200;5.792;2022-12-07T04:51:31;4.20;99.90
53310;DHT22;39197;53.200;5.792;2022-12-07T04:53:57;4.20;99.90
53310;DHT22;39197;53.200;5.792;2022-12-07T04:56:23;4.20;99.90
53310;DHT22;39197;53.200;5.792;2022-12-07T04:58:50;4.20;99.90
53310;DHT22;39197;53.200;5.792;2022-12-07T05:01:17;4.30;99.90
53310;DHT22;39197;53.200;5.792;2022-12-07T05:03:43;4.30;99.90
53310;DHT22;39197;53.200;5.792;2022-12-07T05:06:09;4.40;99.90
53310;DHT22;39197;53.200;5.792;2022-12-07T05:08:36;4.40;99.90
53310;DHT22;39197;53.200;5.792;2022-12-07T05:11:02;4.50;99.90
53310;DHT22;39197;53.200;5.792;2022-12-07T05:13:28;4.50;99.90
53310;DHT22;39197;53.200;5.792;2022-12-07T05:15:54;4.50;99.90
53310;DHT22;39197;53.200;5.792;2022-12-07T05:18:19;4.50;99.90
53310;DHT22;39197;53.200;5.792;2022-12-07T05:20:45;4.50;99.90
53310;DHT22;39197;53.200;5.792;2022-12-07T05:23:11;4.50;99.90
53310;DHT22;39197;53.200;5.792;2022-12-07T05:25:37;4.50;99.90
53310;DHT22;39197;53.200;5.792;2022-12-07T05:28:04;4.50;99.90
53310;DHT22;39197;53.200;5.792;2022-12-07T05:30:31;4.50;99.90
53310;DHT22;39197;53.200;5.792;2022-12-07T05:32:56;4.50;99.90
53310;DHT22;39197;53.200;5.792;2022-12-07T05:35:22;4.50;99.90
53310;DHT22;39197;53.200;5.792;2022-12-07T05:37:48;4.40;99.90
53310;DHT22;39197;53.200;5.792;2022-12-07T05:40:14;4.40;99.90
53310;DHT22;39197;53.200;5.792;2022-12-07T05:42:40;4.40;99.90
53310;DHT22;39197;53.200;5.792;2022-12-07T05:45:06;4.30;99.90
53310;DHT22;39197;53.200;5.792;2022-12-07T05:47:32;4.30;99.90
53310;DHT22;39197;53.200;5.792;2022-12-07T05:49:58;4.20;99.90
53310;DHT22;39197;53.200;5.792;2022-12-07T05:52:23;4.10;99.90
53310;DHT22;39197;53.200;5.792;2022-12-07T05:54:49;4.20;99.90
53310;DHT22;39197;53.200;5.792;2022-12-07T05:57:15;4.20;99.90
53310;DHT22;39197;53.200;5.792;2022-12-07T05:59:40;4.20;99.90
53310;DHT22;39197;53.200;5.792;2022-12-07T06:02:08;4.10;99.90
53310;DHT22;39197;53.200;5.792;2022-12-07T06:04:37;4.10;99.90
53310;DHT22;39197;53.200;5.792;2022-12-07T06:07:03;4.10;99.90
53310;DHT22;39197;53.200;5.792;2022-12-07T06:09:29;4.10;99.90
53310;DHT22;39197;53.200;5.792;2022-12-07T06:11:55;4.00;99.90
53310;DHT22;39197;53.200;5.792;2022-12-07T06:14:40;4.00;99.90
53310;DHT22;39197;53.200;5.792;2022-12-07T06:17:06;4.00;99.90
53310;DHT22;39197;53.200;5.792;2022-12-07T06:19:32;3.90;99.90
53310;DHT22;39197;53.200;5.792;2022-12-07T06:21:58;3.90;99.90
53310;DHT22;39197;53.200;5.792;2022-12-07T06:24:23;3.80;99.90
53310;DHT22;39197;53.200;5.792;2022-12-07T06:26:49;3.80;99.90
53310;DHT22;39197;53.200;5.792;2022-12-07T06:29:16;3.80;99.90
53310;DHT22;39197;53.200;5.792;2022-12-07T06:31:41;3.80;99.90
53310;DHT22;39197;53.200;5.792;2022-12-07T06:34:10;3.80;99.90
53310;DHT22;39197;53.200;5.792;2022-12-07T06:36:37;3.80;99.90
53310;DHT22;39197;53.200;5.792;2022-12-07T06:39:03;3.80;99.90
53310;DHT22;39197;53.200;5.792;2022-12-07T06:41:29;3.80;99.90
53310;DHT22;39197;53.200;5.792;2022-12-07T06:43:55;3.80;99.90
53310;DHT22;39197;53.200;5.792;2022-12-07T06:46:20;4.00;99.90
53310;DHT22;39197;53.200;5.792;2022-12-07T06:48:46;4.10;99.90
53310;DHT22;39197;53.200;5.792;2022-12-07T06:51:11;4.10;99.90
53310;DHT22;39197;53.200;5.792;2022-12-07T06:53:37;4.10;99.90
53310;DHT22;39197;53.200;5.792;2022-12-07T06:56:03;4.10;99.90
53310;DHT22;39197;53.200;5.792;2022-12-07T06:58:30;4.10;99.90
53310;DHT22;39197;53.200;5.792;2022-12-07T07:00:55;4.10;99.90
53310;DHT22;39197;53.200;5.792;2022-12-07T07:03:21;4.10;99.90
53310;DHT22;39197;53.200;5.792;2022-12-07T07:05:47;4.10;99.90
53310;DHT22;39197;53.200;5.792;2022-12-07T07:08:13;4.10;99.90
53310;DHT22;39197;53.200;5.792;2022-12-07T07:10:39;4.10;99.90
53310;DHT22;39197;53.200;5.792;2022-12-07T07:13:04;4.20;99.90
53310;DHT22;39197;53.200;5.792;2022-12-07T07:15:31;4.20;99.90
53310;DHT22;39197;53.200;5.792;2022-12-07T07:17:56;4.20;99.90
53310;DHT22;39197;53.200;5.792;2022-12-07T07:20:22;4.20;99.90
53310;DHT22;39197;53.200;5.792;2022-12-07T07:22:49;4.30;99.90
53310;DHT22;39197;53.200;5.792;2022-12-07T07:25:15;4.30;99.90
53310;DHT22;39197;53.200;5.792;2022-12-07T07:27:40;4.40;99.90
53310;DHT22;39197;53.200;5.792;2022-12-07T07:30:06;4.30;99.90
53310;DHT22;39197;53.200;5.792;2022-12-07T07:32:32;4.30;99.90
53310;DHT22;39197;53.200;5.792;2022-12-07T07:34:58;4.30;99.90
53310;DHT22;39197;53.200;5.792;2022-12-07T07:37:25;4.30;99.90
53310;DHT22;39197;53.200;5.792;2022-12-07T07:39:50;4.50;99.90
53310;DHT22;39197;53.200;5.792;2022-12-07T07:42:16;4.50;99.90
53310;DHT22;39197;53.200;5.792;2022-12-07T07:44:42;4.50;99.90
53310;DHT22;39197;53.200;5.792;2022-12-07T07:47:07;4.50;99.90
53310;DHT22;39197;53.200;5.792;2022-12-07T07:49:33;4.40;99.90
53310;DHT22;39197;53.200;5.792;2022-12-07T07:51:58;4.40;99.90
53310;DHT22;39197;53.200;5.792;2022-12-07T07:54:24;4.30;99.90
53310;DHT22;39197;53.200;5.792;2022-12-07T07:56:49;4.30;99.90
53310;DHT22;39197;53.200;5.792;2022-12-07T07:59:15;4.30;99.90
53310;DHT22;39197;53.200;5.792;2022-12-07T08:01:41;4.30;99.90
53310;DHT22;39197;53.200;5.792;2022-12-07T08:04:07;4.20;99.90
53310;DHT22;39197;53.200;5.792;2022-12-07T08:06:32;4.20;99.90
53310;DHT22;39197;53.200;5.792;2022-12-07T08:08:58;4.20;99.90
53310;DHT22;39197;53.200;5.792;2022-12-07T08:11:24;4.30;99.90
53310;DHT22;39197;53.200;5.792;2022-12-07T08:13:49;4.30;99.90
53310;DHT22;39197;53.200;5.792;2022-12-07T08:16:15;4.40;99.90
53310;DHT22;39197;53.200;5.792;2022-12-07T08:18:42;4.40;99.90
53310;DHT22;39197;53.200;5.792;2022-12-07T08:21:11;4.40;99.90
53310;DHT22;39197;53.200;5.792;2022-12-07T08:23:37;4.40;99.90
53310;DHT22;39197;53.200;5.792;2022-12-07T08:26:05;4.40;99.90
53310;DHT22;39197;53.200;5.792;2022-12-07T08:28:32;4.40;99.90
53310;DHT22;39197;53.200;5.792;2022-12-07T08:31:02;4.30;99.90
53310;DHT22;39197;53.200;5.792;2022-12-07T08:33:27;4.30;99.90
53310;DHT22;39197;53.200;5.792;2022-12-07T08:35:53;4.30;99.90
53310;DHT22;39197;53.200;5.792;2022-12-07T08:38:19;4.40;99.90
53310;DHT22;39197;53.200;5.792;2022-12-07T08:40:45;4.40;99.90
53310;DHT22;39197;53.200;5.792;2022-12-07T08:43:18;4.40;99.90
53310;DHT22;39197;53.200;5.792;2022-12-07T08:45:43;4.40;99.90
53310;DHT22;39197;53.200;5.792;2022-12-07T08:48:11;4.40;99.90
53310;DHT22;39197;53.200;5.792;2022-12-07T08:50:39;4.40;99.90
53310;DHT22;39197;53.200;5.792;2022-12-07T08:53:05;4.40;99.90
53310;DHT22;39197;53.200;5.792;2022-12-07T08:55:32;4.40;99.90
53310;DHT22;39197;53.200;5.792;2022-12-07T08:57:59;4.40;99.90
53310;DHT22;39197;53.200;5.792;2022-12-07T09:00:26;4.40;99.90
53310;DHT22;39197;53.200;5.792;2022-12-07T09:02:51;4.40;99.90
53310;DHT22;39197;53.200;5.792;2022-12-07T09:05:18;4.50;99.90
53310;DHT22;39197;53.200;5.792;2022-12-07T09:07:46;4.50;99.90
53310;DHT22;39197;53.200;5.792;2022-12-07T09:10:14;4.60;99.90
53310;DHT22;39197;53.200;5.792;2022-12-07T09:12:40;4.60;99.90
53310;DHT22;39197;53.200;5.792;2022-12-07T09:15:06;4.70;99.90
53310;DHT22;39197;53.200;5.792;2022-12-07T09:17:32;4.80;99.90
53310;DHT22;39197;53.200;5.792;2022-12-07T09:19:59;5.10;99.90
53310;DHT22;39197;53.200;5.792;2022-12-07T09:22:29;5.30;99.90
53310;DHT22;39197;53.200;5.792;2022-12-07T09:24:54;5.40;99.90
53310;DHT22;39197;53.200;5.792;2022-12-07T09:27:20;5.60;99.90
53310;DHT22;39197;53.200;5.792;2022-12-07T09:29:45;5.60;99.90
53310;DHT22;39197;53.200;5.792;2022-12-07T09:32:11;5.70;99.90
53310;DHT22;39197;53.200;5.792;2022-12-07T09:34:36;5.70;99.90
53310;DHT22;39197;53.200;5.792;2022-12-07T09:37:02;5.70;99.90
53310;DHT22;39197;53.200;5.792;2022-12-07T09:39:29;5.70;99.90
53310;DHT22;39197;53.200;5.792;2022-12-07T09:41:54;5.70;99.90
53310;DHT22;39197;53.200;5.792;2022-12-07T09:44:26;6.00;99.90
53310;DHT22;39197;53.200;5.792;2022-12-07T09:46:52;6.50;99.90
53310;DHT22;39197;53.200;5.792;2022-12-07T09:49:20;7.00;99.90
53310;DHT22;39197;53.200;5.792;2022-12-07T09:51:47;8.00;99.90
53310;DHT22;39197;53.200;5.792;2022-12-07T09:54:15;8.20;99.90
53310;DHT22;39197;53.200;5.792;2022-12-07T09:56:42;8.70;99.90
53310;DHT22;39197;53.200;5.792;2022-12-07T09:59:17;8.90;99.90
53310;DHT22;39197;53.200;5.792;2022-12-07T10:01:45;9.10;99.90
53310;DHT22;39197;53.200;5.792;2022-12-07T10:04:19;9.10;99.90
53310;DHT22;39197;53.200;5.792;2022-12-07T10:06:46;9.10;99.90
53310;DHT22;39197;53.200;5.792;2022-12-07T10:09:17;9.30;99.90
53310;DHT22;39197;53.200;5.792;2022-12-07T10:14:31;9.50;99.90
53310;DHT22;39197;53.200;5.792;2022-12-07T10:16:57;9.60;99.90
53310;DHT22;39197;53.200;5.792;2022-12-07T10:19:27;9.50;99.90
53310;DHT22;39197;53.200;5.792;2022-12-07T10:22:04;9.40;99.90
53310;DHT22;39197;53.200;5.792;2022-12-07T10:24:30;9.10;99.90
53310;DHT22;39197;53.200;5.792;2022-12-07T10:26:56;8.70;99.90
53310;DHT22;39197;53.200;5.792;2022-12-07T10:29:28;8.50;99.90
53310;DHT22;39197;53.200;5.792;2022-12-07T10:32:42;8.40;99.90
53310;DHT22;39197;53.200;5.792;2022-12-07T10:34:43;8.00;99.90
53310;DHT22;39197;53.200;5.792;2022-12-07T10:42:25;7.10;99.90
53310;DHT22;39197;53.200;5.792;2022-12-07T10:45:09;6.90;99.90
53310;DHT22;39197;53.200;5.792;2022-12-07T10:50:52;6.70;99.90
53310;DHT22;39197;53.200;5.792;2022-12-07T10:56:27;6.80;99.90
53310;DHT22;39197;53.200;5.792;2022-12-07T11:02:14;6.70;99.90
53310;DHT22;39197;53.200;5.792;2022-12-07T11:10:41;6.60;99.90
53310;DHT22;39197;53.200;5.792;2022-12-07T11:19:40;7.10;99.90
53310;DHT22;39197;53.200;5.792;2022-12-07T11:22:26;7.70;99.90
53310;DHT22;39197;53.200;5.792;2022-12-07T11:30:37;7.40;99.90
53310;DHT22;39197;53.200;5.792;2022-12-07T11:38:52;6.60;99.90
53310;DHT22;39197;53.200;5.792;2022-12-07T11:41:37;6.50;99.90
53310;DHT22;39197;53.200;5.792;2022-12-07T11:44:27;6.50;99.90
53310;DHT22;39197;53.200;5.792;2022-12-07T11:49:51;6.30;99.90
53310;DHT22;39197;53.200;5.792;2022-12-07T11:55:50;6.40;99.90
53310;DHT22;39197;53.200;5.792;2022-12-07T11:58:38;6.60;99.90
53310;DHT22;39197;53.200;5.792;2022-12-07T12:06:43;7.00;99.90
53310;DHT22;39197;53.200;5.792;2022-12-07T12:09:16;7.20;99.90
53310;DHT22;39197;53.200;5.792;2022-12-07T12:11:58;7.30;99.90
53310;DHT22;39197;53.200;5.792;2022-12-07T12:19:42;6.90;99.90
53310;DHT22;39197;53.200;5.792;2022-12-07T12:22:19;6.70;99.90
53310;DHT22;39197;53.200;5.792;2022-12-07T12:24:50;6.60;99.90
53310;DHT22;39197;53.200;5.792;2022-12-07T12:27:30;6.50;99.90
53310;DHT22;39197;53.200;5.792;2022-12-07T12:30:02;6.40;99.90
53310;DHT22;39197;53.200;5.792;2022-12-07T12:32:39;6.30;99.90
53310;DHT22;39197;53.200;5.792;2022-12-07T12:35:35;6.30;99.90
53310;DHT22;39197;53.200;5.792;2022-12-07T12:38:31;6.40;99.90
53310;DHT22;39197;53.200;5.792;2022-12-07T12:40:59;6.50;99.90
53310;DHT22;39197;53.200;5.792;2022-12-07T12:43:49;6.60;99.90
53310;DHT22;39197;53.200;5.792;2022-12-07T12:51:47;6.70;99.90
53310;DHT22;39197;53.200;5.792;2022-12-07T12:54:23;6.50;99.90
53310;DHT22;39197;53.200;5.792;2022-12-07T12:59:30;6.30;99.90
53310;DHT22;39197;53.200;5.792;2022-12-07T13:02:19;6.10;99.90
53310;DHT22;39197;53.200;5.792;2022-12-07T13:05:03;5.90;99.90
53310;DHT22;39197;53.200;5.792;2022-12-07T13:07:49;5.80;99.90
53310;DHT22;39197;53.200;5.792;2022-12-07T13:15:44;5.80;99.90
53310;DHT22;39197;53.200;5.792;2022-12-07T13:23:37;5.90;99.90
53310;DHT22;39197;53.200;5.792;2022-12-07T13:29:14;5.90;99.90
53310;DHT22;39197;53.200;5.792;2022-12-07T13:31:47;5.80;99.90
53310;DHT22;39197;53.200;5.792;2022-12-07T13:34:37;5.60;99.90
53310;DHT22;39197;53.200;5.792;2022-12-07T13:37:25;5.40;99.90
53310;DHT22;39197;53.200;5.792;2022-12-07T13:39:58;5.40;99.90
53310;DHT22;39197;53.200;5.792;2022-12-07T13:42:29;5.30;99.90
53310;DHT22;39197;53.200;5.792;2022-12-07T13:44:57;5.30;99.90
53310;DHT22;39197;53.200;5.792;2022-12-07T13:47:38;5.20;99.90
53310;DHT22;39197;53.200;5.792;2022-12-07T13:52:48;5.20;99.90
53310;DHT22;39197;53.200;5.792;2022-12-07T13:55:16;5.20;99.90
53310;DHT22;39197;53.200;5.792;2022-12-07T13:57:50;5.20;99.90
53310;DHT22;39197;53.200;5.792;2022-12-07T14:00:22;5.20;99.90
53310;DHT22;39197;53.200;5.792;2022-12-07T14:02:58;5.20;99.90
53310;DHT22;39197;53.200;5.792;2022-12-07T14:05:32;5.20;99.90
53310;DHT22;39197;53.200;5.792;2022-12-07T14:08:03;5.20;99.90
53310;DHT22;39197;53.200;5.792;2022-12-07T14:13:36;5.20;99.90
53310;DHT22;39197;53.200;5.792;2022-12-07T14:16:21;5.20;99.90
53310;DHT22;39197;53.200;5.792;2022-12-07T14:18:48;5.20;99.90
53310;DHT22;39197;53.200;5.792;2022-12-07T14:23:40;5.00;99.90
53310;DHT22;39197;53.200;5.792;2022-12-07T14:26:18;5.00;99.90
53310;DHT22;39197;53.200;5.792;2022-12-07T14:28:45;5.00;99.90
53310;DHT22;39197;53.200;5.792;2022-12-07T14:31:13;5.00;99.90
53310;DHT22;39197;53.200;5.792;2022-12-07T14:33:40;5.10;99.90
53310;DHT22;39197;53.200;5.792;2022-12-07T14:36:10;4.90;99.90
53310;DHT22;39197;53.200;5.792;2022-12-07T14:38:36;4.90;99.90
53310;DHT22;39197;53.200;5.792;2022-12-07T14:41:01;5.00;99.90
53310;DHT22;39197;53.200;5.792;2022-12-07T14:43:46;4.90;99.90
53310;DHT22;39197;53.200;5.792;2022-12-07T14:46:12;4.90;99.90
53310;DHT22;39197;53.200;5.792;2022-12-07T14:48:37;4.80;99.90
53310;DHT22;39197;53.200;5.792;2022-12-07T14:51:03;4.90;99.90
53310;DHT22;39197;53.200;5.792;2022-12-07T14:53:35;4.80;99.90
53310;DHT22;39197;53.200;5.792;2022-12-07T14:56:03;4.80;99.90
53310;DHT22;39197;53.200;5.792;2022-12-07T14:58:31;4.80;99.90
53310;DHT22;39197;53.200;5.792;2022-12-07T15:00:58;4.90;99.90
53310;DHT22;39197;53.200;5.792;2022-12-07T15:03:23;5.00;99.90
53310;DHT22;39197;53.200;5.792;2022-12-07T15:05:49;4.80;99.90
53310;DHT22;39197;53.200;5.792;2022-12-07T15:08:15;4.70;99.90
53310;DHT22;39197;53.200;5.792;2022-12-07T15:10:40;4.80;99.90
53310;DHT22;39197;53.200;5.792;2022-12-07T15:13:07;4.50;99.90
53310;DHT22;39197;53.200;5.792;2022-12-07T15:15:52;4.70;99.90
53310;DHT22;39197;53.200;5.792;2022-12-07T15:18:19;4.60;99.90
53310;DHT22;39197;53.200;5.792;2022-12-07T15:20:45;4.50;99.90
53310;DHT22;39197;53.200;5.792;2022-12-07T15:23:12;4.60;99.90
53310;DHT22;39197;53.200;5.792;2022-12-07T15:25:42;4.40;99.90
53310;DHT22;39197;53.200;5.792;2022-12-07T15:28:07;4.50;99.90
53310;DHT22;39197;53.200;5.792;2022-12-07T15:30:33;4.40;99.90
53310;DHT22;39197;53.200;5.792;2022-12-07T15:32:59;4.50;99.90
53310;DHT22;39197;53.200;5.792;2022-12-07T15:35:24;4.50;99.90
53310;DHT22;39197;53.200;5.792;2022-12-07T15:37:50;4.50;99.90
53310;DHT22;39197;53.200;5.792;2022-12-07T15:40:16;4.50;99.90
53310;DHT22;39197;53.200;5.792;2022-12-07T15:42:42;4.40;99.90
53310;DHT22;39197;53.200;5.792;2022-12-07T15:45:08;4.40;99.90
53310;DHT22;39197;53.200;5.792;2022-12-07T15:47:37;4.40;99.90
53310;DHT22;39197;53.200;5.792;2022-12-07T15:50:04;4.40;99.90
53310;DHT22;39197;53.200;5.792;2022-12-07T15:52:30;4.30;99.90
53310;DHT22;39197;53.200;5.792;2022-12-07T15:54:56;4.30;99.90
53310;DHT22;39197;53.200;5.792;2022-12-07T15:57:22;4.20;99.90
53310;DHT22;39197;53.200;5.792;2022-12-07T15:59:48;4.30;99.90
53310;DHT22;39197;53.200;5.792;2022-12-07T16:02:13;4.20;99.90
53310;DHT22;39197;53.200;5.792;2022-12-07T16:04:39;4.20;99.90
53310;DHT22;39197;53.200;5.792;2022-12-07T16:07:08;4.20;99.90
53310;DHT22;39197;53.200;5.792;2022-12-07T16:09:34;4.20;99.90
53310;DHT22;39197;53.200;5.792;2022-12-07T16:11:59;4.20;99.90
53310;DHT22;39197;53.200;5.792;2022-12-07T16:14:25;5.30;99.90
53310;DHT22;39197;53.200;5.792;2022-12-07T16:16:51;3.60;99.90
53310;DHT22;39197;53.200;5.792;2022-12-07T16:19:17;4.30;99.90
53310;DHT22;39197;53.200;5.792;2022-12-07T16:21:45;3.40;99.90
53310;DHT22;39197;53.200;5.792;2022-12-07T16:24:11;4.10;99.90
53310;DHT22;39197;53.200;5.792;2022-12-07T16:26:38;3.40;99.90
53310;DHT22;39197;53.200;5.792;2022-12-07T16:29:04;4.50;99.90
53310;DHT22;39197;53.200;5.792;2022-12-07T16:31:29;4.10;99.90
53310;DHT22;39197;53.200;5.792;2022-12-07T16:33:57;3.40;99.90
53310;DHT22;39197;53.200;5.792;2022-12-07T16:36:24;4.40;99.90
53310;DHT22;39197;53.200;5.792;2022-12-07T16:38:51;6.30;99.90
53310;DHT22;39197;53.200;5.792;2022-12-07T16:41:17;6.20;99.90
53310;DHT22;39197;53.200;5.792;2022-12-07T16:43:43;3.40;99.90
53310;DHT22;39197;53.200;5.792;2022-12-07T16:46:09;6.90;99.90
53310;DHT22;39197;53.200;5.792;2022-12-07T16:48:37;1.80;99.90
53310;DHT22;39197;53.200;5.792;2022-12-07T16:51:04;3.40;99.90
53310;DHT22;39197;53.200;5.792;2022-12-07T16:53:30;4.10;99.90
53310;DHT22;39197;53.200;5.792;2022-12-07T16:55:56;6.90;99.90
53310;DHT22;39197;53.200;5.792;2022-12-07T16:58:22;5.50;99.90
53310;DHT22;39197;53.200;5.792;2022-12-07T17:00:47;6.30;99.90
53310;DHT22;39197;53.200;5.792;2022-12-07T17:03:14;6.40;99.90
53310;DHT22;39197;53.200;5.792;2022-12-07T17:05:43;4.70;99.90
53310;DHT22;39197;53.200;5.792;2022-12-07T17:08:09;6.80;99.90
53310;DHT22;39197;53.200;5.792;2022-12-07T17:10:38;5.60;99.90
53310;DHT22;39197;53.200;5.792;2022-12-07T17:13:04;5.00;99.90
53310;DHT22;39197;53.200;5.792;2022-12-07T17:16:05;4.60;99.90
53310;DHT22;39197;53.200;5.792;2022-12-07T17:18:33;4.30;99.90
53310;DHT22;39197;53.200;5.792;2022-12-07T17:21:07;5.70;99.90
53310;DHT22;39197;53.200;5.792;2022-12-07T17:23:34;4.30;99.90
53310;DHT22;39197;53.200;5.792;2022-12-07T17:26:05;5.10;99.90
53310;DHT22;39197;53.200;5.792;2022-12-07T17:28:31;4.30;99.90
53310;DHT22;39197;53.200;5.792;2022-12-07T17:30:57;4.30;99.90
53310;DHT22;39197;53.200;5.792;2022-12-07T17:33:23;4.20;99.90
53310;DHT22;39197;53.200;5.792;2022-12-07T17:35:48;4.90;99.90
53310;DHT22;39197;53.200;5.792;2022-12-07T17:38:14;5.10;99.90
53310;DHT22;39197;53.200;5.792;2022-12-07T17:40:40;5.40;99.90
53310;DHT22;39197;53.200;5.792;2022-12-07T17:43:05;4.20;99.90
53310;DHT22;39197;53.200;5.792;2022-12-07T17:45:31;4.90;99.90
53310;DHT22;39197;53.200;5.792;2022-12-07T17:47:56;4.40;99.90
53310;DHT22;39197;53.200;5.792;2022-12-07T17:50:22;3.90;99.90
53310;DHT22;39197;53.200;5.792;2022-12-07T17:53:10;4.20;99.90
53310;DHT22;39197;53.200;5.792;2022-12-07T17:55:36;4.50;99.90
53310;DHT22;39197;53.200;5.792;2022-12-07T17:58:03;4.80;99.90
53310;DHT22;39197;53.200;5.792;2022-12-07T18:00:28;4.10;99.90
53310;DHT22;39197;53.200;5.792;2022-12-07T18:02:54;5.00;99.90
53310;DHT22;39197;53.200;5.792;2022-12-07T18:05:20;5.00;99.90